Time;durP1;ratioP1;P1;durP2;ratioP2;P2;SDS_P1;SDS_P2;PMS_P1;PMS_P2;Temp;Humidity;BMP_temperature;BMP_pressure;BME280_temperature;BME280_humidity;BME280_pressure;Samples;Min_cycle;Max_cycle;Signal;HPM_P1;HPM_P2
2021/10/27 00:01:00;;;;;;;3.42;2.03;;;16.00;58.10;;;;;;6222000;28;20033;-73
2021/10/27 00:04:02;;;;;;;4.75;2.28;;;16.00;58.20;;;;;;6223714;28;20410;-73
2021/10/27 00:07:03;;;;;;;8.45;2.58;;;16.00;58.30;;;;;;6223371;28;20037;-73
2021/10/27 00:10:04;;;;;;;6.20;2.38;;;15.90;58.40;;;;;;6223307;28;20435;-73
2021/10/27 00:13:06;;;;;;;2.83;1.85;;;15.90;58.50;;;;;;6223171;28;20065;-73
2021/10/27 00:16:07;;;;;;;4.97;2.60;;;15.90;58.70;;;;;;6224620;28;20046;-73
2021/10/27 00:19:08;;;;;;;4.57;2.40;;;15.90;58.70;;;;;;6224157;28;20041;-73
2021/10/27 00:22:12;;;;;;;7.68;2.65;;;15.80;58.80;;;;;;6223180;28;20045;-72
2021/10/27 00:25:15;;;;;;;4.07;1.92;;;15.80;58.80;;;;;;6223889;28;20104;-73
2021/10/27 00:28:16;;;;;;;4.63;2.50;;;15.80;58.80;;;;;;6224036;28;20406;-72
2021/10/27 00:31:17;;;;;;;3.60;1.85;;;15.80;58.90;;;;;;6224377;28;20038;-72
2021/10/27 00:34:18;;;;;;;4.07;2.10;;;15.80;58.90;;;;;;6224705;28;20340;-73
2021/10/27 00:37:19;;;;;;;7.78;1.90;;;15.80;58.90;;;;;;6224091;28;20030;-72
2021/10/27 00:40:20;;;;;;;5.85;1.80;;;15.70;58.80;;;;;;6221948;28;20364;-72
2021/10/27 00:43:21;;;;;;;4.15;1.98;;;15.70;58.80;;;;;;6223735;28;20412;-73
2021/10/27 00:46:25;;;;;;;6.70;2.00;;;15.70;58.80;;;;;;6223825;28;20358;-73
2021/10/27 00:49:27;;;;;;;5.97;1.88;;;15.70;58.90;;;;;;6206327;28;20113;-73
2021/10/27 00:52:28;;;;;;;4.35;2.08;;;15.60;58.90;;;;;;6238851;28;20121;-73
2021/10/27 00:55:29;;;;;;;4.85;2.17;;;15.60;58.90;;;;;;6237956;28;20107;-73
2021/10/27 00:58:31;;;;;;;4.05;2.15;;;15.60;58.90;;;;;;6223682;28;20459;-73
2021/10/27 01:01:32;;;;;;;3.63;1.98;;;15.60;59.00;;;;;;6206836;28;20042;-73
2021/10/27 01:04:33;;;;;;;7.50;2.60;;;15.60;59.10;;;;;;6222541;28;20494;-72
2021/10/27 01:07:34;;;;;;;8.88;2.42;;;15.60;59.20;;;;;;6219570;28;20046;-73
2021/10/27 01:10:36;;;;;;;4.78;2.22;;;15.60;59.40;;;;;;6218967;28;20034;-73
2021/10/27 01:13:37;;;;;;;3.97;2.17;;;15.50;59.40;;;;;;6223182;28;20186;-73
2021/10/27 01:16:38;;;;;;;5.68;2.60;;;15.50;59.50;;;;;;6205657;28;20030;-73
2021/10/27 01:19:55;;;;;;;6.43;2.13;;;15.40;59.50;;;;;;6221510;28;20133;-73
2021/10/27 01:23:22;;;;;;;5.68;2.13;;;15.30;59.70;;;;;;6215957;28;20034;-73
2021/10/27 01:26:23;;;;;;;7.68;2.40;;;15.30;59.90;;;;;;6221253;28;20116;-73
2021/10/27 01:29:24;;;;;;;4.75;2.60;;;15.30;60.10;;;;;;6221394;28;20030;-73
2021/10/27 01:32:32;;;;;;;5.53;2.70;;;15.30;60.20;;;;;;6219374;28;20033;-73
2021/10/27 01:35:33;;;;;;;5.35;2.30;;;15.30;60.30;;;;;;6216304;28;20124;-73
2021/10/27 01:38:34;;;;;;;5.97;2.58;;;15.20;60.30;;;;;;6216410;28;21697;-73
2021/10/27 01:41:35;;;;;;;5.57;2.70;;;15.20;60.50;;;;;;6225424;28;20063;-73
2021/10/27 01:44:36;;;;;;;5.63;2.25;;;15.20;60.50;;;;;;6223110;28;20046;-72
2021/10/27 01:47:42;;;;;;;7.15;2.40;;;15.10;60.50;;;;;;6211041;28;20050;-72
2021/10/27 01:50:44;;;;;;;7.35;2.63;;;15.10;60.50;;;;;;6215316;28;20092;-73
2021/10/27 01:53:45;;;;;;;6.00;2.40;;;15.20;60.60;;;;;;6220055;28;20117;-73
2021/10/27 01:56:46;;;;;;;4.13;2.20;;;15.10;60.60;;;;;;6236405;28;20485;-73
2021/10/27 01:59:47;;;;;;;7.00;2.67;;;15.10;60.50;;;;;;6219811;28;20049;-73
2021/10/27 02:02:47;;;;;;;8.63;2.35;;;15.10;60.70;;;;;;6220280;28;20045;-73
2021/10/27 02:05:48;;;;;;;4.35;2.42;;;15.10;60.40;;;;;;6219296;28;20046;-73
2021/10/27 02:08:50;;;;;;;3.95;2.33;;;15.10;60.30;;;;;;6220747;28;20113;-73
2021/10/27 02:11:52;;;;;;;4.60;2.58;;;15.10;60.30;;;;;;6219798;28;20038;-73
2021/10/27 02:14:53;;;;;;;7.13;2.70;;;15.10;60.30;;;;;;6220971;28;20038;-73
2021/10/27 02:17:54;;;;;;;5.70;2.60;;;15.10;60.40;;;;;;6219638;28;20050;-73
2021/10/27 02:20:55;;;;;;;4.22;2.60;;;15.00;60.50;;;;;;6219957;28;20042;-73
2021/10/27 02:23:57;;;;;;;3.53;2.20;;;15.00;60.50;;;;;;6220455;28;20037;-73
2021/10/27 02:26:58;;;;;;;7.63;2.70;;;15.00;60.50;;;;;;6218961;28;20103;-73
2021/10/27 02:29:59;;;;;;;3.28;2.28;;;15.00;60.60;;;;;;6220254;28;20161;-73
2021/10/27 02:33:02;;;;;;;6.70;3.13;;;15.00;60.70;;;;;;6219687;28;20038;-73
2021/10/27 02:36:04;;;;;;;9.50;2.35;;;15.00;60.70;;;;;;6220160;28;20375;-73
2021/10/27 02:39:06;;;;;;;6.30;2.60;;;14.90;60.80;;;;;;6236003;28;20450;-73
2021/10/27 02:42:08;;;;;;;3.67;2.30;;;14.90;60.80;;;;;;6221323;28;20121;-73
2021/10/27 02:45:10;;;;;;;4.70;2.50;;;14.80;60.90;;;;;;6215340;28;20045;-73
2021/10/27 02:48:13;;;;;;;5.05;2.20;;;14.80;61.00;;;;;;6220128;28;20041;-73
2021/10/27 02:51:14;;;;;;;8.73;2.30;;;14.80;61.00;;;;;;6222109;28;20030;-73
2021/10/27 02:54:15;;;;;;;5.25;2.72;;;14.80;61.10;;;;;;6219822;28;20045;-73
2021/10/27 02:57:16;;;;;;;6.47;2.55;;;14.70;61.10;;;;;;6220881;28;20088;-72
2021/10/27 03:00:17;;;;;;;6.57;2.85;;;14.80;61.30;;;;;;6220920;28;20030;-72
2021/10/27 03:03:18;;;;;;;6.57;2.90;;;14.70;61.30;;;;;;6220290;28;20054;-72
2021/10/27 03:06:20;;;;;;;5.28;2.42;;;14.70;62.20;;;;;;6222086;28;20551;-72
2021/10/27 03:09:20;;;;;;;10.75;2.47;;;14.70;61.30;;;;;;6220996;28;20048;-73
2021/10/27 03:12:21;;;;;;;4.97;2.53;;;14.70;61.30;;;;;;6221938;28;20091;-73
2021/10/27 03:15:22;;;;;;;9.30;2.80;;;14.70;61.30;;;;;;6220840;28;20041;-73
2021/10/27 03:18:23;;;;;;;9.45;2.90;;;14.70;62.10;;;;;;6220658;28;20037;-73
2021/10/27 03:21:24;;;;;;;5.65;3.03;;;14.60;61.30;;;;;;6221754;28;20359;-73
2021/10/27 03:24:25;;;;;;;6.75;2.92;;;14.60;61.40;;;;;;6204111;28;20046;-73
2021/10/27 03:27:26;;;;;;;4.80;2.47;;;14.60;61.40;;;;;;6220263;28;20030;-73
2021/10/27 03:30:28;;;;;;;8.43;2.95;;;14.50;61.50;;;;;;6221845;28;20034;-73
2021/10/27 03:33:29;;;;;;;6.63;3.13;;;14.50;61.60;;;;;;6224816;28;20077;-73
2021/10/27 03:36:30;;;;;;;5.38;2.30;;;14.50;61.70;;;;;;6239835;28;20115;-73
2021/10/27 03:39:32;;;;;;;5.35;2.60;;;14.40;61.80;;;;;;6224714;28;20110;-73
2021/10/27 03:42:33;;;;;;;6.82;2.50;;;14.40;61.90;;;;;;6225184;28;20037;-73
2021/10/27 03:45:34;;;;;;;4.15;2.50;;;14.30;62.00;;;;;;6226149;28;20144;-73
2021/10/27 03:48:35;;;;;;;5.35;2.95;;;14.30;62.10;;;;;;6225343;28;20148;-72
2021/10/27 03:51:36;;;;;;;5.57;2.70;;;14.30;62.20;;;;;;6226116;28;20104;-72
2021/10/27 03:54:37;;;;;;;6.00;2.65;;;14.30;62.30;;;;;;6226307;28;20439;-72
2021/10/27 03:57:38;;;;;;;8.65;3.22;;;14.30;62.40;;;;;;6225942;28;20084;-72
2021/10/27 04:00:40;;;;;;;10.93;3.28;;;14.30;62.40;;;;;;6226220;28;20038;-72
2021/10/27 04:03:41;;;;;;;7.05;3.22;;;14.30;62.40;;;;;;6227263;28;20056;-73
2021/10/27 04:06:42;;;;;;;8.90;3.50;;;14.30;62.40;;;;;;6226092;28;20038;-73
2021/10/27 04:09:43;;;;;;;11.07;3.65;;;14.30;62.30;;;;;;6225935;28;20041;-73
2021/10/27 04:12:44;;;;;;;5.55;3.35;;;14.30;62.30;;;;;;6225865;28;20046;-73
2021/10/27 04:15:45;;;;;;;5.90;3.42;;;14.30;62.30;;;;;;6225681;28;20077;-73
2021/10/27 04:18:46;;;;;;;6.65;3.60;;;14.20;62.30;;;;;;6226106;28;20033;-73
2021/10/27 04:21:47;;;;;;;8.10;3.70;;;14.30;62.30;;;;;;6225466;28;20030;-73
2021/10/27 04:24:48;;;;;;;7.28;3.70;;;14.30;62.30;;;;;;6226421;28;20057;-73
2021/10/27 04:27:48;;;;;;;6.80;3.05;;;14.30;62.40;;;;;;6229418;28;20045;-73
2021/10/27 04:30:49;;;;;;;8.85;3.70;;;14.30;62.40;;;;;;6229355;28;20518;-73
2021/10/27 04:33:50;;;;;;;7.47;3.30;;;14.30;62.40;;;;;;6226958;28;20034;-73
2021/10/27 04:36:51;;;;;;;9.50;3.63;;;14.20;62.40;;;;;;6226373;28;20034;-72
2021/10/27 04:39:52;;;;;;;21.10;9.35;;;14.30;62.50;;;;;;6224802;28;20034;-72
2021/10/27 04:42:53;;;;;;;8.88;3.28;;;14.30;62.40;;;;;;6241298;28;20048;-73
2021/10/27 04:45:55;;;;;;;10.10;3.50;;;14.20;62.30;;;;;;6224980;28;20430;-73
2021/10/27 04:48:55;;;;;;;4.85;3.42;;;14.20;62.40;;;;;;6225130;28;20071;-73
2021/10/27 04:51:58;;;;;;;9.02;3.33;;;14.20;62.60;;;;;;6219333;28;20117;-73
2021/10/27 04:54:59;;;;;;;10.23;3.72;;;14.10;62.70;;;;;;6223678;28;20034;-72
2021/10/27 04:57:59;;;;;;;9.98;3.42;;;14.10;62.70;;;;;;6222595;28;20365;-73
2021/10/27 05:01:00;;;;;;;5.25;2.97;;;14.10;62.80;;;;;;6217915;28;20038;-73
2021/10/27 05:04:01;;;;;;;14.25;3.28;;;14.00;62.90;;;;;;6226233;28;20076;-72
2021/10/27 05:07:03;;;;;;;12.57;3.88;;;14.00;63.00;;;;;;6225631;28;20109;-72
2021/10/27 05:10:04;;;;;;;28.92;3.85;;;14.00;63.10;;;;;;6224556;28;20121;-72
2021/10/27 05:13:05;;;;;;;9.50;3.78;;;14.00;63.20;;;;;;6225807;28;20033;-72
2021/10/27 05:16:06;;;;;;;22.83;3.97;;;14.00;63.20;;;;;;6225106;28;20336;-72
2021/10/27 05:19:07;;;;;;;11.55;4.20;;;13.90;63.20;;;;;;6223891;28;20053;-74
2021/10/27 05:22:09;;;;;;;15.43;3.90;;;13.90;63.30;;;;;;6207926;28;20061;-73
2021/10/27 05:25:10;;;;;;;13.48;3.90;;;13.90;63.50;;;;;;6224908;28;20041;-73
2021/10/27 05:28:11;;;;;;;8.82;4.13;;;13.90;63.50;;;;;;6223887;28;20037;-72
2021/10/27 05:31:12;;;;;;;6.20;3.33;;;13.90;63.50;;;;;;6240036;28;20029;-73
2021/10/27 05:34:13;;;;;;;6.05;3.65;;;13.90;63.50;;;;;;6208216;28;20030;-72
2021/10/27 05:37:14;;;;;;;20.58;3.83;;;13.90;63.40;;;;;;6236867;28;20042;-73
2021/10/27 05:40:14;;;;;;;22.52;4.05;;;13.90;63.50;;;;;;6223245;28;20085;-72
2021/10/27 05:43:15;;;;;;;16.90;4.00;;;14.00;63.40;;;;;;6202184;28;20034;-73
2021/10/27 05:46:19;;;;;;;15.40;3.63;;;14.00;64.10;;;;;;6211972;28;20065;-72
2021/10/27 05:56:19;;;;;;;6.75;3.22;;;13.90;63.20;;;;;;6217541;28;20029;-72
2021/10/27 05:59:21;;;;;;;5.75;3.42;;;13.90;63.30;;;;;;6218679;28;20106;-72
2021/10/27 06:02:22;;;;;;;7.88;3.60;;;13.90;63.30;;;;;;6205374;28;20100;-73
2021/10/27 06:05:23;;;;;;;9.18;3.97;;;13.90;63.30;;;;;;6218093;28;20041;-72
2021/10/27 06:08:24;;;;;;;9.57;3.72;;;13.90;63.40;;;;;;6180322;28;20464;-72
2021/10/27 06:11:25;;;;;;;8.38;3.50;;;13.90;63.30;;;;;;6214890;28;20044;-72
2021/10/27 06:14:26;;;;;;;9.63;3.58;;;13.90;63.40;;;;;;6195880;28;20042;-74
2021/10/27 06:17:27;;;;;;;10.45;3.55;;;13.90;63.30;;;;;;6200464;28;20037;-74
2021/10/27 06:20:29;;;;;;;8.30;3.10;;;14.00;63.40;;;;;;6217393;28;20078;-72
2021/10/27 06:23:30;;;;;;;7.22;3.45;;;14.00;63.40;;;;;;6200232;28;20530;-74
2021/10/27 06:26:32;;;;;;;9.27;3.80;;;13.90;63.20;;;;;;6203518;28;20117;-73
2021/10/27 06:29:46;;;;;;;8.00;3.65;;;13.90;63.20;;;;;;6220996;28;20041;-76
2021/10/27 06:35:56;;;;;;;11.82;3.70;;;13.90;63.20;;;;;;6217925;28;20038;-74
2021/10/27 06:45:59;;;;;;;6.55;3.05;;;13.90;63.30;;;;;;6218037;28;20107;-74
2021/10/27 06:49:00;;;;;;;11.73;3.72;;;13.90;63.30;;;;;;6215044;28;20062;-75
2021/10/27 06:52:01;;;;;;;8.48;4.18;;;13.90;63.30;;;;;;6217481;28;20038;-76
2021/10/27 06:55:03;;;;;;;9.05;3.80;;;13.80;63.30;;;;;;6218746;28;20029;-75
2021/10/27 06:58:05;;;;;;;8.90;4.13;;;13.80;63.20;;;;;;6216054;28;20193;-75
2021/10/27 07:01:07;;;;;;;8.93;3.78;;;13.80;63.20;;;;;;6216359;28;20041;-76
2021/10/27 07:04:35;;;;;;;9.73;4.63;;;13.70;63.30;;;;;;6217435;28;20049;-74
2021/10/27 07:17:49;;;;;;;7.13;3.72;;;13.70;63.50;;;;;;6223991;28;20038;-75
2021/10/27 07:20:50;;;;;;;8.88;4.10;;;13.70;63.60;;;;;;6215655;28;20045;-74
2021/10/27 07:23:52;;;;;;;13.25;3.97;;;13.70;63.60;;;;;;6222034;28;20037;-74
2021/10/27 07:26:58;;;;;;;14.23;4.07;;;13.80;64.50;;;;;;6218933;28;20338;-75
2021/10/27 07:29:59;;;;;;;14.45;3.60;;;13.80;63.60;;;;;;6216299;28;20029;-74
2021/10/27 07:33:00;;;;;;;8.75;3.65;;;13.90;63.50;;;;;;6214780;28;20404;-74
2021/10/27 07:42:23;;;;;;;11.73;4.32;;;14.00;63.40;;;;;;6212256;28;20052;-74
2021/10/27 07:45:26;;;;;;;7.13;3.78;;;14.00;63.10;;;;;;6217583;28;20140;-75
2021/10/27 07:48:28;;;;;;;12.60;4.50;;;14.10;63.00;;;;;;6216643;28;20092;-75
2021/10/27 07:51:32;;;;;;;7.82;3.58;;;14.20;62.70;;;;;;6221381;28;20046;-75
2021/10/27 07:54:34;;;;;;;15.38;4.28;;;14.20;62.70;;;;;;6234656;28;20117;-74
2021/10/27 07:57:36;;;;;;;12.90;4.93;;;14.30;62.80;;;;;;6218967;28;20125;-74
2021/10/27 08:00:37;;;;;;;9.90;4.15;;;14.30;62.50;;;;;;6232838;28;20456;-75
2021/10/27 08:03:38;;;;;;;12.80;4.28;;;14.50;62.30;;;;;;6212749;28;20113;-74
2021/10/27 08:06:40;;;;;;;21.40;5.53;;;14.50;62.10;;;;;;6218269;28;20045;-73
2021/10/27 08:09:42;;;;;;;13.77;4.38;;;14.70;62.00;;;;;;6217722;28;20367;-74
2021/10/27 08:12:46;;;;;;;17.05;3.55;;;14.80;61.70;;;;;;6218202;28;20050;-74
2021/10/27 08:15:48;;;;;;;14.80;3.75;;;14.90;61.30;;;;;;6219325;28;20459;-74
2021/10/27 08:18:50;;;;;;;12.05;5.45;;;15.00;61.00;;;;;;6220446;28;20034;-74
2021/10/27 08:21:50;;;;;;;13.13;5.28;;;15.10;60.80;;;;;;6239395;28;20443;-74
2021/10/27 08:24:53;;;;;;;10.25;4.78;;;15.20;60.50;;;;;;6223586;28;20117;-75
2021/10/27 08:28:01;;;;;;;17.08;5.22;;;15.40;60.30;;;;;;6225729;28;20052;-74
2021/10/27 08:34:33;;;;;;;10.10;4.00;;;15.60;59.50;;;;;;6239501;28;20956;-74
2021/10/27 08:37:34;;;;;;;16.00;5.75;;;15.70;58.90;;;;;;6217695;28;20092;-74
2021/10/27 08:40:35;;;;;;;15.95;6.80;;;15.80;58.60;;;;;;6235172;28;20058;-74
2021/10/27 08:43:36;;;;;;;25.80;8.80;;;15.90;58.30;;;;;;6240267;28;20092;-76
2021/10/27 08:46:37;;;;;;;15.63;6.80;;;15.90;57.90;;;;;;6223933;28;20534;-75
2021/10/27 08:49:38;;;;;;;10.95;4.43;;;16.00;58.00;;;;;;6222868;28;20038;-73
2021/10/27 08:52:40;;;;;;;9.15;4.40;;;16.00;58.00;;;;;;6223636;28;20049;-74
2021/10/27 08:55:45;;;;;;;9.73;4.40;;;16.10;57.70;;;;;;6224154;28;20038;-75
2021/10/27 08:58:50;;;;;;;8.75;4.43;;;16.20;57.40;;;;;;6222914;28;20065;-75
2021/10/27 09:02:19;;;;;;;12.75;4.60;;;16.30;57.30;;;;;;6240424;28;20037;-76
2021/10/27 10:05:27;;;;;;;9.90;4.68;;;17.90;54.00;;;;;;6192557;28;20046;-75
2021/10/27 10:08:28;;;;;;;15.45;6.63;;;18.30;53.30;;;;;;6194376;28;20115;-76
2021/10/27 10:11:30;;;;;;;15.73;7.22;;;18.60;52.80;;;;;;6176984;28;20053;-76
2021/10/27 10:14:32;;;;;;;15.70;4.97;;;18.90;52.10;;;;;;6195250;28;20054;-76
2021/10/27 10:17:36;;;;;;;19.67;6.43;;;19.00;51.50;;;;;;6195901;28;20081;-76
2021/10/27 10:20:38;;;;;;;9.77;4.15;;;19.10;51.10;;;;;;6185282;28;20104;-76
2021/10/27 10:23:40;;;;;;;16.67;5.78;;;19.30;51.10;;;;;;6187667;28;20349;-75
2021/10/27 10:26:42;;;;;;;13.13;4.38;;;19.50;50.60;;;;;;6192900;28;20030;-76
2021/10/27 10:29:50;;;;;;;9.10;4.78;;;19.60;50.00;;;;;;6193015;28;20038;-75
2021/10/27 10:33:12;;;;;;;14.15;4.93;;;19.80;49.80;;;;;;6170314;28;20379;-76
2021/10/27 10:36:25;;;;;;;19.77;7.65;;;19.90;49.70;;;;;;6187675;28;20420;-76
2021/10/27 10:39:52;;;;;;;11.98;4.22;;;20.10;49.00;;;;;;6177521;28;20121;-77
2021/10/27 10:43:09;;;;;;;27.88;9.90;;;20.20;48.70;;;;;;6192679;28;20401;-78
2021/10/27 11:37:30;;;;;;;7.80;2.88;;;25.40;37.00;;;;;;6190337;28;20041;-77
2021/10/27 11:40:38;;;;;;;6.72;3.05;;;25.90;36.40;;;;;;6213177;28;20053;-77
2021/10/27 11:44:10;;;;;;;12.35;3.40;;;26.30;35.50;;;;;;6216249;28;20038;-76
2021/10/27 11:47:31;;;;;;;7.38;2.60;;;26.50;35.00;;;;;;6217721;28;20034;-76
2021/10/27 11:50:36;;;;;;;6.28;2.70;;;26.80;34.90;;;;;;6232363;28;20025;-77
2021/10/27 11:53:38;;;;;;;9.90;3.60;;;26.60;34.20;;;;;;6219901;28;20057;-77
2021/10/27 11:56:40;;;;;;;6.13;2.90;;;26.40;34.70;;;;;;6223914;28;20046;-78
2021/10/27 11:59:47;;;;;;;8.13;2.58;;;26.40;34.60;;;;;;6241570;28;20122;-78
2021/10/27 12:03:04;;;;;;;4.28;2.50;;;26.10;34.80;;;;;;6225414;28;20038;-76
2021/10/27 12:06:13;;;;;;;6.55;2.78;;;25.80;35.30;;;;;;6221867;28;20046;-78
2021/10/27 12:16:25;;;;;;;8.73;3.33;;;25.70;35.90;;;;;;6224244;28;20040;-76
2021/10/27 12:19:30;;;;;;;10.20;2.55;;;25.50;35.70;;;;;;6221709;28;20049;-77
2021/10/27 12:22:35;;;;;;;7.82;2.45;;;25.10;35.80;;;;;;6234822;28;20068;-77
2021/10/27 12:25:36;;;;;;;7.68;3.47;;;24.70;36.30;;;;;;6205504;28;20049;-77
2021/10/27 12:28:37;;;;;;;6.90;3.13;;;24.10;37.10;;;;;;6239625;28;20471;-77
2021/10/27 12:31:39;;;;;;;5.88;2.67;;;23.80;37.90;;;;;;6237444;28;20044;-77
2021/10/27 12:34:53;;;;;;;5.03;2.38;;;23.40;38.40;;;;;;6227320;28;20037;-76
2021/10/27 12:41:22;;;;;;;6.00;2.50;;;22.60;39.70;;;;;;6228731;28;20100;-78
2021/10/27 12:44:25;;;;;;;3.45;2.17;;;22.40;40.20;;;;;;6222909;28;20131;-79
2021/10/27 12:47:31;;;;;;;5.20;2.33;;;22.30;40.60;;;;;;6222691;28;20060;-75
2021/10/27 12:50:32;;;;;;;11.25;4.22;;;22.10;41.00;;;;;;6223217;28;20037;-76
2021/10/27 12:53:46;;;;;;;8.20;2.75;;;21.90;41.20;;;;;;6223640;28;20475;-75
2021/10/27 12:56:47;;;;;;;8.60;2.35;;;21.80;41.40;;;;;;6215577;28;20041;-75
2021/10/27 12:59:48;;;;;;;8.73;2.47;;;21.60;41.80;;;;;;6235092;28;20451;-77
2021/10/27 13:10:35;;;;;;;;;;;21.40;42.60;;;;;;6120128;28;20067;-76
2021/10/27 13:30:01;;;;;;;9.60;2.55;;;21.20;43.50;;;;;;6090128;29;20371;-75
2021/10/27 13:33:06;;;;;;;8.88;2.28;;;21.20;43.00;;;;;;6073683;29;20036;-75
2021/10/27 13:36:07;;;;;;;3.90;1.95;;;21.20;43.10;;;;;;6085567;29;20032;-76
2021/10/27 13:39:08;;;;;;;8.15;2.42;;;21.20;43.20;;;;;;6071708;29;20028;-75
2021/10/27 14:08:50;;;;;;;9.52;2.05;;;21.10;44.00;;;;;;6220737;28;20128;-77
2021/10/27 14:15:07;;;;;;;6.25;2.30;;;21.00;44.20;;;;;;6222453;28;20359;-76
2021/10/27 14:47:59;;;;;;;3.00;2.13;;;20.80;45.50;;;;;;6219824;28;20431;-77
2021/10/27 14:51:16;;;;;;;4.65;2.20;;;20.80;45.60;;;;;;6220234;28;20099;-76
2021/10/27 15:20:56;;;;;;;7.03;2.33;;;20.60;46.30;;;;;;6220487;28;20030;-76
2021/10/27 15:24:15;;;;;;;6.75;2.33;;;20.50;46.40;;;;;;6220135;28;20107;-75
2021/10/27 15:32:05;;;;;;;7.55;2.33;;;20.40;46.60;;;;;;6175588;28;20058;-74
2021/10/27 15:34:44;;;;;;;7.32;2.40;;;20.40;46.70;;;;;;6157816;28;20039;-75
2021/10/27 15:44:59;;;;;;;12.05;2.70;;;20.20;47.20;;;;;;6198455;28;20463;-76
2021/10/27 15:51:08;;;;;;;5.15;2.40;;;20.20;47.60;;;;;;6199329;28;20506;-75
2021/10/27 15:54:09;;;;;;;12.73;2.67;;;20.10;47.60;;;;;;6196780;28;20462;-76
2021/10/27 15:57:10;;;;;;;13.30;3.00;;;20.10;47.80;;;;;;6201656;28;20451;-75
2021/10/27 16:00:12;;;;;;;8.80;2.90;;;20.00;47.90;;;;;;6200240;28;20049;-77
2021/10/27 16:03:16;;;;;;;5.03;2.50;;;20.00;48.00;;;;;;6196691;28;20041;-77
2021/10/27 16:06:23;;;;;;;5.78;2.70;;;19.90;48.00;;;;;;6193252;28;20125;-77
2021/10/27 16:09:29;;;;;;;9.27;2.78;;;19.90;48.10;;;;;;6190315;28;20354;-76
2021/10/27 16:12:30;;;;;;;6.80;2.95;;;19.90;48.20;;;;;;6201354;28;20100;-75
2021/10/27 16:15:36;;;;;;;4.28;2.78;;;19.80;48.30;;;;;;6201488;28;20116;-77
2021/10/27 16:18:38;;;;;;;14.13;3.17;;;19.80;48.40;;;;;;6200830;28;20038;-77
2021/10/27 16:21:41;;;;;;;6.78;2.80;;;19.70;48.60;;;;;;6202679;28;20043;-77
2021/10/27 16:24:43;;;;;;;10.02;2.97;;;19.60;48.80;;;;;;6198228;28;20038;-78
2021/10/27 16:27:44;;;;;;;6.60;2.50;;;19.70;48.90;;;;;;6179899;28;20061;-77
2021/10/27 16:30:45;;;;;;;8.55;2.33;;;19.60;48.90;;;;;;6199977;28;20041;-78
2021/10/27 16:33:46;;;;;;;4.47;2.50;;;19.50;48.90;;;;;;6200943;28;20050;-78
2021/10/27 16:36:48;;;;;;;7.22;3.00;;;19.50;49.00;;;;;;6176736;28;20076;-78
2021/10/27 16:39:49;;;;;;;5.18;2.72;;;19.40;49.10;;;;;;6201427;28;20038;-79
2021/10/27 16:42:50;;;;;;;9.77;3.08;;;19.40;49.10;;;;;;6201280;28;20482;-77
2021/10/27 16:45:52;;;;;;;7.05;2.65;;;19.30;49.20;;;;;;6200514;28;20344;-77
2021/10/27 16:48:53;;;;;;;7.78;3.25;;;19.30;49.30;;;;;;6202449;28;20041;-78
2021/10/27 16:51:54;;;;;;;8.48;3.00;;;19.30;49.50;;;;;;6202405;28;20543;-78
2021/10/27 16:54:56;;;;;;;7.25;3.25;;;19.20;49.50;;;;;;6183012;28;20030;-77
2021/10/27 16:57:58;;;;;;;6.05;2.30;;;19.20;49.80;;;;;;6199908;28;20050;-77
2021/10/27 17:01:00;;;;;;;5.78;2.40;;;19.10;49.80;;;;;;6185336;28;20050;-78
2021/10/27 17:04:01;;;;;;;6.90;2.58;;;19.10;49.90;;;;;;6216489;28;20210;-78
2021/10/27 17:07:02;;;;;;;6.85;3.47;;;19.10;49.90;;;;;;6202574;28;20093;-79
2021/10/27 17:10:05;;;;;;;10.93;3.08;;;19.00;49.90;;;;;;6191016;28;20113;-78
2021/10/27 17:13:06;;;;;;;7.78;3.35;;;19.00;50.10;;;;;;6183570;28;20041;-79
2021/10/27 17:16:07;;;;;;;9.15;3.33;;;19.00;50.30;;;;;;6200351;28;20106;-79
2021/10/27 17:19:09;;;;;;;15.90;3.00;;;18.90;50.60;;;;;;6189061;28;20042;-77
2021/10/27 17:22:12;;;;;;;16.27;3.78;;;18.90;50.90;;;;;;6201362;28;20038;-78
2021/10/27 17:25:16;;;;;;;8.32;3.42;;;18.80;51.00;;;;;;6194662;28;20101;-77
2021/10/27 17:28:17;;;;;;;10.38;3.30;;;18.80;51.10;;;;;;6197799;28;20086;-77
2021/10/27 17:31:18;;;;;;;11.15;4.10;;;18.70;51.30;;;;;;6192711;28;20367;-77
2021/10/27 17:34:19;;;;;;;17.08;3.60;;;18.70;52.10;;;;;;6196575;28;20062;-78
2021/10/27 17:37:21;;;;;;;8.25;3.78;;;18.60;51.60;;;;;;6195903;28;20035;-79
2021/10/27 17:40:35;;;;;;;7.43;3.45;;;18.50;51.70;;;;;;6198250;28;20056;-79
2021/10/27 17:43:36;;;;;;;8.93;3.95;;;18.50;51.80;;;;;;6187636;28;20038;-78
2021/10/27 17:46:42;;;;;;;11.43;3.90;;;18.40;52.10;;;;;;6195983;28;20030;-78
2021/10/27 17:49:59;;;;;;;13.52;5.18;;;18.30;52.30;;;;;;6198452;28;20031;-78
2021/10/27 17:57:35;;;;;;;12.68;5.20;;;18.20;52.40;;;;;;6175072;28;20070;-80
2021/10/27 17:59:49;;;;;;;14.40;5.17;;;18.10;52.50;;;;;;6188030;28;19914;-76
2021/10/27 18:02:50;;;;;;;11.85;4.15;;;18.10;52.70;;;;;;6191158;28;20270;-77
2021/10/27 18:05:51;;;;;;;17.15;4.75;;;18.10;52.80;;;;;;6179115;28;20076;-78
2021/10/27 18:08:52;;;;;;;10.40;5.30;;;18.10;52.90;;;;;;6201881;28;20044;-79
2021/10/27 18:11:53;;;;;;;19.10;5.07;;;18.00;53.00;;;;;;6198275;28;20169;-78
2021/10/27 18:14:56;;;;;;;15.13;5.25;;;18.10;53.20;;;;;;6182830;28;20038;-78
2021/10/27 18:17:57;;;;;;;16.27;5.30;;;18.00;53.40;;;;;;6181623;28;20042;-77
2021/10/27 18:20:59;;;;;;;11.88;5.28;;;18.10;53.60;;;;;;6196067;28;20043;-77
2021/10/27 18:24:07;;;;;;;13.18;4.22;;;18.00;53.60;;;;;;6194457;28;20074;-77
2021/10/27 18:40:27;;;;;;;22.83;5.00;;;17.70;53.60;;;;;;6135299;28;20148;-78
2021/10/27 18:43:31;;;;;;;16.00;5.07;;;17.70;53.80;;;;;;6129935;28;20039;-76
2021/10/27 18:46:32;;;;;;;7.20;3.88;;;17.60;53.90;;;;;;6129539;28;20043;-77
2021/10/27 18:49:33;;;;;;;15.32;4.53;;;17.60;54.10;;;;;;6106209;28;20122;-76
2021/10/27 18:55:44;;;;;;;14.55;4.97;;;17.60;54.10;;;;;;6144945;28;20052;-77
2021/10/27 19:11:33;;;;;;;16.50;5.82;;;17.50;54.90;;;;;;6191403;28;20038;-77
2021/10/27 19:17:55;;;;;;;13.93;5.68;;;17.40;55.40;;;;;;6194000;28;20141;-78
2021/10/27 19:20:56;;;;;;;14.55;5.07;;;17.30;55.50;;;;;;6186201;28;20044;-77
2021/10/27 19:24:01;;;;;;;14.98;5.05;;;17.30;55.70;;;;;;6181939;28;20038;-74
2021/10/27 19:27:07;;;;;;;12.82;5.25;;;17.30;55.80;;;;;;6194283;28;20427;-75
2021/10/27 19:33:35;;;;;;;11.63;4.47;;;17.20;56.00;;;;;;6193359;28;20448;-78
2021/10/27 20:06:48;;;;;;;14.93;5.38;;;16.80;56.40;;;;;;6145934;28;20046;-77
2021/10/27 20:53:05;;;;;;;15.35;4.97;;;16.00;58.00;;;;;;6145731;28;20387;-78
2021/10/27 20:55:50;;;;;;;14.25;5.68;;;16.00;58.10;;;;;;6132429;28;20065;-77
2021/10/27 21:02:10;;;;;;;10.07;5.07;;;15.90;58.20;;;;;;6145097;28;20045;-77
2021/10/27 21:15:13;;;;;;;18.90;5.32;;;15.80;58.40;;;;;;6137993;28;20144;-76
2021/10/27 21:18:15;;;;;;;11.38;4.70;;;15.70;58.50;;;;;;6148915;28;20372;-78
2021/10/27 21:21:16;;;;;;;9.60;5.13;;;15.70;58.50;;;;;;6143130;28;20050;-76
2021/10/27 21:24:17;;;;;;;9.48;4.20;;;15.70;58.50;;;;;;6133041;28;20050;-77
2021/10/27 21:31:08;;;;;;;9.57;5.03;;;15.60;58.50;;;;;;6085456;28;20043;-73
2021/10/27 21:44:13;;;;;;;13.10;5.28;;;15.60;58.60;;;;;;6014479;29;20489;-74
2021/10/27 21:47:14;;;;;;;10.57;4.88;;;15.60;58.60;;;;;;6008518;29;20033;-74
2021/10/27 21:50:17;;;;;;;9.38;5.20;;;15.60;58.60;;;;;;6016414;29;20051;-74
2021/10/27 21:53:18;;;;;;;13.00;4.93;;;15.60;58.80;;;;;;6017673;29;21054;-75
2021/10/27 21:56:24;;;;;;;7.88;4.55;;;15.60;58.90;;;;;;6016319;29;20611;-74
2021/10/27 21:59:24;;;;;;;12.52;5.35;;;15.50;58.80;;;;;;6017019;29;20067;-74
2021/10/27 22:02:27;;;;;;;15.40;4.95;;;15.50;58.90;;;;;;6004129;29;20123;-74
2021/10/27 22:05:28;;;;;;;10.93;5.22;;;15.50;59.00;;;;;;6035870;29;21022;-74
2021/10/27 22:08:29;;;;;;;10.98;5.43;;;15.50;59.10;;;;;;6047400;29;20147;-74
2021/10/27 22:11:32;;;;;;;13.63;5.65;;;15.50;59.20;;;;;;6064886;28;20553;-75
2021/10/27 22:14:33;;;;;;;10.95;5.25;;;15.40;59.30;;;;;;6095050;28;20038;-74
2021/10/27 22:17:34;;;;;;;10.85;5.03;;;15.40;59.50;;;;;;6139400;28;20387;-75
2021/10/27 22:20:36;;;;;;;12.02;5.13;;;15.30;59.50;;;;;;6149626;28;20041;-75
2021/10/27 22:23:38;;;;;;;18.20;5.63;;;15.30;59.50;;;;;;6157760;28;20594;-75
2021/10/27 22:26:42;;;;;;;11.85;5.28;;;15.30;59.50;;;;;;6166978;28;20038;-75
2021/10/27 22:29:43;;;;;;;11.05;5.38;;;15.30;59.50;;;;;;6183615;28;20069;-74
2021/10/27 22:32:44;;;;;;;8.63;4.90;;;15.40;59.50;;;;;;6196466;28;20058;-74
2021/10/27 22:35:46;;;;;;;9.35;5.10;;;15.30;59.50;;;;;;6189481;28;20145;-75
2021/10/27 22:38:47;;;;;;;9.70;5.03;;;15.30;59.50;;;;;;6192859;28;20034;-74
2021/10/27 22:41:47;;;;;;;10.60;5.13;;;15.20;59.40;;;;;;6203078;28;20027;-75
2021/10/27 22:44:49;;;;;;;8.35;5.10;;;15.20;59.40;;;;;;6195348;28;20046;-75
2021/10/27 22:47:50;;;;;;;14.93;5.68;;;15.20;59.40;;;;;;6175050;28;20042;-75
2021/10/27 22:50:52;;;;;;;17.30;5.32;;;15.10;59.40;;;;;;6190281;28;20034;-74